Time;durP1;ratioP1;P1;durP2;ratioP2;P2;SDS_P1;SDS_P2;PMS_P1;PMS_P2;Temp;Humidity;BMP_temperature;BMP_pressure;BME280_temperature;BME280_humidity;BME280_pressure;Samples;Min_cycle;Max_cycle;Signal;HPM_P1;HPM_P2
2022/11/02 00:02:16;;;;;;;;;;;21.80;99.90;;;;;;4164254;28;19965;-69
2022/11/02 00:04:23;;;;;;;;;;;21.90;99.90;;;;;;4163528;28;19964;-69
2022/11/02 00:06:29;;;;;;;;;;;21.90;99.90;;;;;;4163564;28;19936;-68
2022/11/02 00:08:38;;;;;;;;;;;22.00;99.90;;;;;;4164901;28;20290;-69
2022/11/02 00:10:44;;;;;;;;;;;22.10;99.90;;;;;;4168119;28;19929;-68
2022/11/02 00:12:54;;;;;;;;;;;22.20;99.90;;;;;;4166980;28;19925;-68
2022/11/02 00:15:00;;;;;;;;;;;22.20;99.90;;;;;;4163518;28;19929;-70
2022/11/02 00:17:08;;;;;;;;;;;22.40;99.90;;;;;;4161982;28;19929;-72
2022/11/02 00:19:12;;;;;;;;;;;22.60;99.90;;;;;;4163090;28;19987;-73
2022/11/02 00:21:16;;;;;;;;;;;22.80;99.90;;;;;;4161081;28;20027;-74
2022/11/02 00:23:20;;;;;;;;;;;22.90;99.90;;;;;;4165206;28;20031;-73
2022/11/02 00:25:24;;;;;;;;;;;23.10;99.50;;;;;;4177467;28;19990;-73
2022/11/02 00:27:29;;;;;;;;;;;23.20;99.20;;;;;;4159282;28;19940;-74
2022/11/02 00:29:34;;;;;;;;;;;23.30;99.20;;;;;;4144208;28;19945;-72
2022/11/02 00:31:40;;;;;;;;;;;23.20;99.60;;;;;;4144459;28;20490;-73
2022/11/02 00:33:46;;;;;;;;;;;23.20;99.50;;;;;;4144506;28;19925;-72
2022/11/02 00:35:50;;;;;;;;;;;23.20;99.40;;;;;;4142365;28;19929;-73
2022/11/02 00:37:54;;;;;;;;;;;23.20;99.50;;;;;;4143921;28;20399;-73
2022/11/02 00:40:00;;;;;;;;;;;23.30;99.40;;;;;;4144836;28;19970;-73
2022/11/02 00:42:05;;;;;;;;;;;23.30;98.70;;;;;;4128073;28;19925;-73
2022/11/02 00:44:09;;;;;;;;;;;23.30;98.30;;;;;;4160184;28;19933;-73
2022/11/02 00:46:13;;;;;;;;;;;23.30;98.30;;;;;;4143979;28;20451;-73
2022/11/02 00:48:17;;;;;;;;;;;23.40;98.50;;;;;;4143832;28;19929;-74
2022/11/02 00:50:21;;;;;;;;;;;23.40;98.60;;;;;;4160592;28;21058;-73
2022/11/02 00:52:25;;;;;;;;;;;23.50;97.80;;;;;;4143851;28;19929;-74
2022/11/02 00:54:31;;;;;;;;;;;23.60;98.10;;;;;;4143987;28;20419;-73
2022/11/02 00:56:37;;;;;;;;;;;23.70;97.30;;;;;;4143050;28;19952;-73
2022/11/02 00:58:41;;;;;;;;;;;23.60;97.20;;;;;;4143045;28;19960;-74
2022/11/02 01:00:46;;;;;;;;;;;23.60;97.00;;;;;;4177281;28;19979;-73
2022/11/02 01:02:50;;;;;;;;;;;23.70;97.20;;;;;;4187726;28;19950;-70
2022/11/02 01:04:54;;;;;;;;;;;23.70;97.20;;;;;;4176670;28;19929;-73
2022/11/02 01:07:00;;;;;;;;;;;23.70;96.60;;;;;;4160830;28;20039;-73
2022/11/02 01:09:04;;;;;;;;;;;23.80;96.50;;;;;;4163478;28;20297;-70
2022/11/02 01:11:08;;;;;;;;;;;23.80;95.90;;;;;;4175962;28;19925;-69
2022/11/02 01:13:14;;;;;;;;;;;23.80;95.80;;;;;;4160864;28;19935;-70
2022/11/02 01:15:18;;;;;;;;;;;23.80;95.70;;;;;;4160946;28;20036;-70
2022/11/02 01:17:22;;;;;;;;;;;23.80;95.70;;;;;;4175545;28;19933;-70
2022/11/02 01:19:28;;;;;;;;;;;23.90;95.50;;;;;;4175485;28;20020;-70
2022/11/02 01:21:31;;;;;;;;;;;23.90;95.40;;;;;;4161777;28;19929;-70
2022/11/02 01:23:36;;;;;;;;;;;23.80;95.20;;;;;;4192718;28;19928;-70
2022/11/02 01:25:43;;;;;;;;;;;23.90;95.20;;;;;;4175684;28;19924;-69
2022/11/02 01:27:50;;;;;;;;;;;23.80;94.90;;;;;;4175685;28;19928;-69
2022/11/02 01:29:54;;;;;;;;;;;24.00;94.90;;;;;;4176877;28;20023;-70
2022/11/02 01:32:00;;;;;;;;;;;24.00;94.90;;;;;;4161080;28;19936;-70
2022/11/02 01:34:04;;;;;;;;;;;24.10;94.70;;;;;;4176122;28;19928;-70
2022/11/02 01:36:08;;;;;;;;;;;24.20;94.60;;;;;;4161301;28;20372;-70
2022/11/02 01:38:14;;;;;;;;;;;24.30;94.60;;;;;;4192650;28;20689;-70
2022/11/02 01:40:20;;;;;;;;;;;24.30;94.50;;;;;;4161435;28;20351;-70
2022/11/02 01:42:25;;;;;;;;;;;24.30;94.60;;;;;;4161141;28;19975;-70
2022/11/02 01:44:32;;;;;;;;;;;24.30;94.50;;;;;;4192870;28;20483;-70
2022/11/02 01:46:38;;;;;;;;;;;24.40;94.30;;;;;;4160530;28;19929;-70
2022/11/02 01:48:41;;;;;;;;;;;24.40;94.20;;;;;;4176110;28;19994;-69
2022/11/02 01:50:45;;;;;;;;;;;24.50;94.10;;;;;;4193390;28;19928;-69
2022/11/02 01:52:49;;;;;;;;;;;24.60;93.90;;;;;;4144189;28;19930;-69
2022/11/02 01:55:01;;;;;;;;;;;24.60;93.50;;;;;;4175670;28;19925;-69
2022/11/02 01:57:07;;;;;;;;;;;24.60;93.40;;;;;;4176384;28;19967;-70
2022/11/02 01:59:13;;;;;;;;;;;24.60;92.90;;;;;;4164533;28;19929;-69
2022/11/02 02:01:16;;;;;;;;;;;24.60;92.80;;;;;;4160922;28;19956;-70
2022/11/02 02:03:29;;;;;;;;;;;24.30;93.00;;;;;;4190475;28;20002;-70
2022/11/02 02:05:33;;;;;;;;;;;24.40;93.20;;;;;;4143529;28;19996;-70
2022/11/02 02:07:38;;;;;;;;;;;24.60;93.00;;;;;;4175436;28;19924;-70
2022/11/02 02:09:43;;;;;;;;;;;24.60;92.40;;;;;;4159950;28;19932;-70
2022/11/02 02:11:53;;;;;;;;;;;24.70;92.20;;;;;;4159317;28;19979;-70
2022/11/02 02:14:00;;;;;;;;;;;24.80;91.90;;;;;;4159274;28;19940;-70
2022/11/02 02:16:10;;;;;;;;;;;24.80;91.30;;;;;;4159419;28;20438;-70
2022/11/02 02:18:26;;;;;;;;;;;24.90;91.30;;;;;;4158938;28;20422;-70
2022/11/02 02:20:43;;;;;;;;;;;24.90;91.10;;;;;;4159983;28;20411;-70
2022/11/02 02:23:00;;;;;;;;;;;24.90;91.20;;;;;;4147324;28;19930;-70
2022/11/02 02:25:16;;;;;;;;;;;25.10;91.40;;;;;;4176846;28;20291;-70
2022/11/02 02:27:40;;;;;;;;;;;25.20;91.10;;;;;;4191915;28;19924;-70
2022/11/02 02:29:48;;;;;;;;;;;25.10;91.20;;;;;;4210228;28;20436;-70
2022/11/02 02:31:52;;;;;;;;;;;25.20;91.40;;;;;;4181222;28;19925;-69
2022/11/02 02:33:56;;;;;;;;;;;25.20;91.30;;;;;;4165834;28;19925;-70
2022/11/02 02:36:09;;;;;;;;;;;25.20;90.80;;;;;;4180992;28;19940;-70
2022/11/02 02:38:25;;;;;;;;;;;25.30;91.00;;;;;;4181744;28;19983;-70
2022/11/02 02:40:40;;;;;;;;;;;25.30;90.70;;;;;;4181343;28;20684;-70
2022/11/02 02:42:50;;;;;;;;;;;25.20;90.50;;;;;;4148178;28;19933;-70
2022/11/02 02:45:13;;;;;;;;;;;25.30;90.50;;;;;;4164471;28;19929;-70
2022/11/02 02:47:17;;;;;;;;;;;25.40;90.90;;;;;;4181014;28;19956;-70
2022/11/02 02:49:28;;;;;;;;;;;25.50;90.80;;;;;;4164615;28;19971;-70
2022/11/02 02:51:32;;;;;;;;;;;25.60;90.80;;;;;;4148707;28;19925;-70
2022/11/02 02:53:47;;;;;;;;;;;25.60;90.90;;;;;;4164525;28;19925;-70
2022/11/02 02:55:55;;;;;;;;;;;25.70;90.70;;;;;;4164370;28;20012;-70
2022/11/02 02:58:00;;;;;;;;;;;25.70;90.80;;;;;;4180693;28;20419;-70
2022/11/02 03:00:05;;;;;;;;;;;25.80;90.60;;;;;;4181061;28;20020;-71
2022/11/02 03:02:28;;;;;;;;;;;25.90;90.80;;;;;;4163924;28;19991;-71
2022/11/02 03:04:33;;;;;;;;;;;25.90;90.60;;;;;;4163302;28;20032;-72
2022/11/02 03:06:36;;;;;;;;;;;26.00;90.60;;;;;;4163830;28;19963;-72
2022/11/02 03:08:45;;;;;;;;;;;26.20;91.50;;;;;;4147291;28;19996;-72
2022/11/02 03:10:53;;;;;;;;;;;26.40;91.40;;;;;;4147055;28;19960;-72
2022/11/02 03:13:10;;;;;;;;;;;26.50;91.10;;;;;;4163856;28;19983;-73
2022/11/02 03:15:20;;;;;;;;;;;26.60;91.00;;;;;;4147371;28;19930;-72
2022/11/02 03:17:38;;;;;;;;;;;26.70;91.00;;;;;;4163729;28;19929;-72
2022/11/02 03:19:54;;;;;;;;;;;26.70;91.00;;;;;;4163695;28;19929;-73
2022/11/02 03:22:17;;;;;;;;;;;26.70;91.20;;;;;;4163982;28;19964;-75
2022/11/02 03:24:26;;;;;;;;;;;26.80;91.20;;;;;;4163133;28;19929;-72
2022/11/02 03:26:36;;;;;;;;;;;26.80;91.10;;;;;;4162893;28;19965;-73
2022/11/02 03:28:44;;;;;;;;;;;26.70;90.50;;;;;;4147047;28;19949;-73
2022/11/02 03:30:57;;;;;;;;;;;26.70;90.70;;;;;;4146755;28;20048;-73
2022/11/02 03:33:11;;;;;;;;;;;26.80;91.00;;;;;;4152310;28;20384;-73
2022/11/02 03:35:17;;;;;;;;;;;27.00;90.70;;;;;;4164701;28;19995;-72
2022/11/02 03:37:23;;;;;;;;;;;27.10;90.50;;;;;;4165455;28;19929;-70
2022/11/02 03:39:30;;;;;;;;;;;27.10;89.60;;;;;;4165527;28;19992;-69
2022/11/02 03:41:37;;;;;;;;;;;27.10;89.60;;;;;;4178949;28;20467;-71
2022/11/02 03:43:41;;;;;;;;;;;27.20;89.10;;;;;;4161782;28;20671;-71
2022/11/02 03:45:46;;;;;;;;;;;27.20;89.50;;;;;;4160699;28;19963;-70
2022/11/02 03:47:52;;;;;;;;;;;27.20;89.30;;;;;;4143967;28;20361;-70
2022/11/02 03:49:56;;;;;;;;;;;27.20;89.00;;;;;;4144850;28;20346;-71
2022/11/02 03:52:01;;;;;;;;;;;27.20;88.80;;;;;;4160283;28;19933;-71
2022/11/02 03:54:10;;;;;;;;;;;27.20;88.30;;;;;;4131955;28;19980;-71
2022/11/02 03:56:35;;;;;;;;;;;27.30;87.20;;;;;;4159303;28;19936;-71
2022/11/02 03:58:39;;;;;;;;;;;27.00;83.20;;;;;;4144042;28;20023;-70
2022/11/02 04:00:53;;;;;;;;;;;26.90;85.20;;;;;;4168536;28;19939;-70
2022/11/02 04:02:58;;;;;;;;;;;27.00;85.70;;;;;;4128280;28;19936;-70
2022/11/02 04:05:04;;;;;;;;;;;27.10;85.70;;;;;;4176247;28;19929;-70
2022/11/02 04:07:13;;;;;;;;;;;27.20;85.40;;;;;;4160141;28;20067;-70
2022/11/02 04:09:22;;;;;;;;;;;27.30;85.60;;;;;;4160559;28;19933;-70
2022/11/02 04:16:08;;;;;;;;;;;27.40;84.30;;;;;;4143973;28;19936;-69
2022/11/02 04:20:30;;;;;;;;;;;27.40;85.40;;;;;;4177863;28;19952;-72
2022/11/02 04:27:10;;;;;;;;;;;27.50;84.00;;;;;;4177264;28;19929;-70
2022/11/02 04:29:20;;;;;;;;;;;27.60;82.90;;;;;;4160871;28;20675;-70
2022/11/02 04:31:24;;;;;;;;;;;27.60;82.70;;;;;;4158350;28;20016;-70
2022/11/02 04:33:31;;;;;;;;;;;27.50;82.60;;;;;;4176792;28;19929;-71
2022/11/02 04:35:44;;;;;;;;;;;27.50;81.70;;;;;;4174114;28;19935;-70
2022/11/02 04:40:11;;;;;;;;;;;27.50;83.10;;;;;;4161342;28;19979;-70
2022/11/02 04:42:15;;;;;;;;;;;27.70;82.80;;;;;;4160453;28;19936;-70
2022/11/02 04:44:30;;;;;;;;;;;27.80;80.10;;;;;;4177302;28;19928;-70
2022/11/02 04:46:42;;;;;;;;;;;27.70;81.50;;;;;;4161545;28;19929;-71
2022/11/02 04:48:48;;;;;;;;;;;27.70;81.50;;;;;;4161206;28;19929;-71
2022/11/02 04:50:54;;;;;;;;;;;27.70;80.90;;;;;;4162072;28;19971;-70
2022/11/02 04:53:01;;;;;;;;;;;27.70;81.90;;;;;;4160228;28;19929;-70
2022/11/02 04:55:07;;;;;;;;;;;27.60;81.30;;;;;;4176989;28;19935;-69
2022/11/02 04:57:11;;;;;;;;;;;27.60;81.90;;;;;;4144365;28;20407;-70
2022/11/02 04:59:14;;;;;;;;;;;27.80;81.70;;;;;;4160380;28;19992;-70
2022/11/02 05:01:19;;;;;;;;;;;27.90;80.70;;;;;;4159503;28;20039;-71
2022/11/02 05:03:23;;;;;;;;;;;28.10;80.80;;;;;;4193114;28;19978;-70
2022/11/02 05:05:29;;;;;;;;;;;28.10;79.60;;;;;;4160853;28;19936;-69
2022/11/02 05:07:34;;;;;;;;;;;28.00;80.10;;;;;;4176403;28;20019;-70
2022/11/02 05:09:42;;;;;;;;;;;27.70;80.60;;;;;;4176768;28;19967;-71
2022/11/02 05:11:51;;;;;;;;;;;27.70;81.20;;;;;;4185505;28;19960;-70
2022/11/02 05:13:54;;;;;;;;;;;27.90;81.50;;;;;;4176763;28;19967;-69
2022/11/02 05:15:58;;;;;;;;;;;28.00;81.50;;;;;;4160004;28;19945;-70
2022/11/02 05:18:03;;;;;;;;;;;28.20;81.40;;;;;;4175591;28;20306;-70
2022/11/02 05:20:09;;;;;;;;;;;28.20;80.60;;;;;;4184578;28;19943;-70
2022/11/02 05:22:13;;;;;;;;;;;28.30;79.50;;;;;;4184245;28;19943;-70
2022/11/02 05:24:17;;;;;;;;;;;28.20;79.70;;;;;;4174995;28;19928;-70
2022/11/02 05:26:21;;;;;;;;;;;28.00;79.70;;;;;;4159145;28;20419;-72
2022/11/02 05:28:25;;;;;;;;;;;28.10;80.10;;;;;;4158828;28;19995;-72
2022/11/02 05:30:33;;;;;;;;;;;28.20;80.00;;;;;;4158589;28;19933;-71
2022/11/02 05:32:38;;;;;;;;;;;28.20;79.90;;;;;;4159825;28;19936;-71
2022/11/02 05:34:43;;;;;;;;;;;28.30;79.70;;;;;;4160701;28;20335;-70
2022/11/02 05:36:48;;;;;;;;;;;28.30;80.00;;;;;;4157466;28;20064;-71
2022/11/02 05:38:53;;;;;;;;;;;28.30;80.20;;;;;;4160183;28;20399;-71
2022/11/02 05:40:58;;;;;;;;;;;28.20;80.80;;;;;;4167592;28;19929;-70
2022/11/02 05:43:09;;;;;;;;;;;28.20;80.00;;;;;;4164900;28;20015;-70
2022/11/02 05:45:13;;;;;;;;;;;28.30;80.80;;;;;;4175369;28;19932;-70
2022/11/02 05:47:22;;;;;;;;;;;28.30;79.70;;;;;;4160227;28;19995;-70
2022/11/02 05:49:28;;;;;;;;;;;28.30;79.70;;;;;;4160528;28;19929;-70
2022/11/02 05:51:34;;;;;;;;;;;28.30;79.70;;;;;;4158403;28;19982;-70
2022/11/02 05:53:37;;;;;;;;;;;28.30;79.10;;;;;;4162294;28;19933;-69
2022/11/02 05:55:43;;;;;;;;;;;28.30;79.30;;;;;;4158938;28;19933;-69
2022/11/02 05:57:51;;;;;;;;;;;28.40;79.40;;;;;;4172431;28;20304;-70
2022/11/02 05:59:55;;;;;;;;;;;28.50;78.40;;;;;;4166929;28;19940;-69
2022/11/02 06:02:01;;;;;;;;;;;28.50;78.70;;;;;;4160292;28;19925;-70
2022/11/02 06:04:05;;;;;;;;;;;28.50;79.10;;;;;;4160668;28;20459;-70
2022/11/02 06:06:11;;;;;;;;;;;28.50;79.40;;;;;;4160362;28;19929;-71
2022/11/02 06:08:16;;;;;;;;;;;28.50;78.80;;;;;;4160440;28;20044;-69
2022/11/02 06:10:20;;;;;;;;;;;28.60;79.60;;;;;;4160735;28;20044;-69
2022/11/02 06:12:24;;;;;;;;;;;28.70;78.90;;;;;;4160347;28;20458;-70
2022/11/02 06:14:34;;;;;;;;;;;28.60;78.40;;;;;;4160166;28;20450;-71
2022/11/02 06:16:38;;;;;;;;;;;28.80;78.90;;;;;;4160644;28;19964;-71
2022/11/02 06:18:42;;;;;;;;;;;28.60;78.00;;;;;;4160491;28;20672;-71
2022/11/02 06:20:48;;;;;;;;;;;28.70;79.50;;;;;;4192005;28;20015;-71
2022/11/02 06:22:52;;;;;;;;;;;28.70;78.90;;;;;;4159141;28;19933;-71
2022/11/02 06:24:56;;;;;;;;;;;28.70;78.90;;;;;;4160266;28;20002;-71
2022/11/02 06:27:01;;;;;;;;;;;28.80;79.30;;;;;;4159370;28;19929;-71
2022/11/02 06:29:05;;;;;;;;;;;28.80;76.90;;;;;;4159159;28;19975;-71
2022/11/02 06:31:10;;;;;;;;;;;28.70;78.60;;;;;;4163725;28;19995;-71
2022/11/02 06:33:18;;;;;;;;;;;28.70;78.70;;;;;;4159358;28;20415;-70
2022/11/02 06:35:22;;;;;;;;;;;28.70;78.60;;;;;;4192159;28;20295;-71
2022/11/02 06:37:26;;;;;;;;;;;28.80;79.00;;;;;;4143124;28;20451;-71
2022/11/02 06:39:30;;;;;;;;;;;28.80;78.30;;;;;;4162919;28;19999;-71
2022/11/02 06:41:41;;;;;;;;;;;28.80;79.20;;;;;;4174243;28;20039;-71
2022/11/02 06:43:45;;;;;;;;;;;28.90;78.70;;;;;;4160108;28;19972;-71
2022/11/02 06:45:51;;;;;;;;;;;28.90;78.90;;;;;;4175391;28;19925;-74
2022/11/02 06:47:55;;;;;;;;;;;29.00;78.30;;;;;;4160024;28;19929;-74
2022/11/02 06:49:59;;;;;;;;;;;28.90;77.00;;;;;;4160687;28;19947;-73
2022/11/02 06:52:07;;;;;;;;;;;28.90;77.90;;;;;;4175186;28;19936;-74
2022/11/02 06:54:11;;;;;;;;;;;29.00;78.10;;;;;;4173920;28;20024;-74
2022/11/02 06:56:14;;;;;;;;;;;29.00;77.90;;;;;;4175338;28;19976;-73
2022/11/02 06:58:21;;;;;;;;;;;28.90;76.80;;;;;;4175990;28;20032;-74
2022/11/02 07:00:26;;;;;;;;;;;28.80;77.70;;;;;;4175617;28;19924;-73
2022/11/02 07:02:30;;;;;;;;;;;28.80;77.80;;;;;;4167901;28;19933;-73
2022/11/02 07:04:34;;;;;;;;;;;28.90;78.20;;;;;;4159022;28;20433;-73
2022/11/02 07:06:38;;;;;;;;;;;29.00;78.50;;;;;;4190817;28;19955;-73
2022/11/02 07:08:42;;;;;;;;;;;28.90;77.20;;;;;;4159544;28;19933;-74
2022/11/02 07:10:48;;;;;;;;;;;28.90;78.90;;;;;;4159496;28;19968;-74
2022/11/02 07:12:53;;;;;;;;;;;29.00;78.10;;;;;;4160238;28;19935;-74
2022/11/02 07:14:57;;;;;;;;;;;29.00;78.10;;;;;;4191680;28;19928;-74
2022/11/02 07:17:02;;;;;;;;;;;29.00;78.50;;;;;;4161351;28;20288;-73
2022/11/02 07:19:06;;;;;;;;;;;29.10;78.60;;;;;;4162759;28;20521;-73
2022/11/02 07:21:10;;;;;;;;;;;29.30;78.90;;;;;;4161559;28;19929;-74
2022/11/02 07:23:16;;;;;;;;;;;29.40;78.40;;;;;;4168628;28;19924;-73
2022/11/02 07:25:20;;;;;;;;;;;29.30;77.00;;;;;;4179411;28;19966;-74
2022/11/02 07:27:24;;;;;;;;;;;29.30;77.40;;;;;;4178478;28;19928;-73
2022/11/02 07:29:28;;;;;;;;;;;29.30;76.50;;;;;;4177990;28;19929;-74
2022/11/02 07:31:32;;;;;;;;;;;29.20;76.80;;;;;;4163748;28;19932;-74
2022/11/02 07:33:38;;;;;;;;;;;29.30;77.70;;;;;;4163295;28;19929;-74
2022/11/02 07:35:44;;;;;;;;;;;29.30;77.50;;;;;;4160514;28;20391;-74
2022/11/02 07:37:55;;;;;;;;;;;29.30;77.00;;;;;;4174311;28;19929;-73
2022/11/02 07:39:59;;;;;;;;;;;29.30;77.40;;;;;;4194389;28;19928;-74
2022/11/02 07:42:06;;;;;;;;;;;29.40;78.20;;;;;;4162299;28;20032;-73
2022/11/02 07:44:10;;;;;;;;;;;29.30;77.60;;;;;;4162662;28;19929;-73
2022/11/02 07:46:27;;;;;;;;;;;29.20;77.00;;;;;;4190086;28;20016;-73
2022/11/02 07:48:34;;;;;;;;;;;29.30;77.00;;;;;;4162789;28;19968;-74
2022/11/02 07:50:38;;;;;;;;;;;29.10;76.00;;;;;;4162577;28;19985;-73
2022/11/02 07:52:45;;;;;;;;;;;29.20;76.70;;;;;;4164161;28;19947;-73
2022/11/02 07:54:52;;;;;;;;;;;29.20;76.80;;;;;;4177938;28;19932;-73
2022/11/02 07:56:56;;;;;;;;;;;29.10;77.00;;;;;;4179369;28;20028;-73
2022/11/02 07:59:00;;;;;;;;;;;29.10;77.20;;;;;;4178218;28;19929;-73
2022/11/02 08:01:08;;;;;;;;;;;29.30;77.40;;;;;;4166349;28;20036;-73
2022/11/02 08:03:13;;;;;;;;;;;29.40;77.00;;;;;;4162497;28;20036;-72
2022/11/02 08:05:17;;;;;;;;;;;29.40;77.30;;;;;;4177081;28;20316;-72
2022/11/02 08:07:21;;;;;;;;;;;29.30;77.20;;;;;;4146360;28;19991;-72
2022/11/02 08:09:25;;;;;;;;;;;29.20;76.00;;;;;;4145972;28;20404;-70
2022/11/02 08:11:30;;;;;;;;;;;29.10;76.70;;;;;;4150385;28;19933;-71
2022/11/02 08:13:35;;;;;;;;;;;29.10;75.70;;;;;;4162516;28;20315;-71
2022/11/02 08:15:39;;;;;;;;;;;29.20;75.60;;;;;;4161454;28;19936;-70
2022/11/02 08:17:43;;;;;;;;;;;29.20;75.80;;;;;;4162081;28;20871;-72
2022/11/02 08:19:49;;;;;;;;;;;29.20;76.80;;;;;;4161040;28;19978;-70
2022/11/02 08:21:54;;;;;;;;;;;29.30;77.90;;;;;;4177390;28;19975;-72
2022/11/02 08:23:58;;;;;;;;;;;29.30;77.20;;;;;;4161442;28;19936;-71
2022/11/02 08:26:04;;;;;;;;;;;29.20;77.20;;;;;;4158342;28;19940;-71
2022/11/02 08:28:11;;;;;;;;;;;29.30;77.80;;;;;;4161685;28;19929;-71
2022/11/02 08:30:15;;;;;;;;;;;29.20;76.30;;;;;;4162483;28;19928;-72
2022/11/02 08:32:21;;;;;;;;;;;29.20;77.60;;;;;;4161965;28;20288;-72
2022/11/02 08:34:26;;;;;;;;;;;29.10;75.10;;;;;;4176956;28;20354;-72
2022/11/02 08:36:30;;;;;;;;;;;29.20;74.80;;;;;;4159497;28;19929;-71
2022/11/02 08:38:34;;;;;;;;;;;29.30;73.50;;;;;;4161303;28;19972;-72
2022/11/02 08:40:38;;;;;;;;;;;29.30;73.50;;;;;;4161979;28;20019;-73
2022/11/02 08:42:42;;;;;;;;;;;29.30;73.10;;;;;;4161402;28;19931;-72
2022/11/02 08:44:48;;;;;;;;;;;29.20;73.90;;;;;;4159186;28;19929;-72
2022/11/02 08:46:51;;;;;;;;;;;29.30;75.00;;;;;;4159285;28;19928;-71
2022/11/02 08:49:00;;;;;;;;;;;29.30;74.00;;;;;;4161101;28;19979;-72
2022/11/02 08:51:07;;;;;;;;;;;29.30;74.20;;;;;;4162485;28;19929;-71
2022/11/02 08:53:13;;;;;;;;;;;29.20;73.20;;;;;;4158436;28;19932;-70
2022/11/02 08:55:18;;;;;;;;;;;29.10;73.10;;;;;;4161364;28;19925;-70
2022/11/02 08:57:21;;;;;;;;;;;29.10;74.40;;;;;;4161366;28;19929;-70
2022/11/02 08:59:26;;;;;;;;;;;29.10;74.30;;;;;;4160005;28;19935;-69
2022/11/02 09:01:30;;;;;;;;;;;29.10;74.00;;;;;;4161243;28;20003;-69
2022/11/02 09:03:36;;;;;;;;;;;29.00;73.80;;;;;;4161184;28;19932;-69
2022/11/02 09:05:43;;;;;;;;;;;29.00;73.90;;;;;;4161265;28;19936;-69
2022/11/02 09:07:47;;;;;;;;;;;29.10;74.50;;;;;;4160932;28;20047;-69
2022/11/02 09:09:53;;;;;;;;;;;29.00;74.60;;;;;;4159115;28;20411;-69
2022/11/02 09:11:58;;;;;;;;;;;29.00;74.70;;;;;;4161332;28;19972;-69
2022/11/02 09:14:02;;;;;;;;;;;29.00;74.50;;;;;;4160889;28;20407;-68
2022/11/02 09:16:08;;;;;;;;;;;29.00;74.70;;;;;;4161230;28;20303;-68
2022/11/02 09:18:14;;;;;;;;;;;28.90;74.70;;;;;;4159352;28;20012;-68
2022/11/02 09:20:18;;;;;;;;;;;29.00;74.00;;;;;;4160836;28;19929;-69
2022/11/02 09:22:24;;;;;;;;;;;29.10;74.70;;;;;;4160329;28;19936;-68
2022/11/02 09:24:28;;;;;;;;;;;29.00;74.20;;;;;;4162543;28;20043;-68
2022/11/02 09:26:32;;;;;;;;;;;29.10;74.40;;;;;;4160750;28;19925;-68
2022/11/02 09:28:38;;;;;;;;;;;29.00;73.80;;;;;;4159151;28;19998;-69
2022/11/02 09:30:42;;;;;;;;;;;29.00;74.10;;;;;;4155641;28;19929;-70
2022/11/02 09:32:53;;;;;;;;;;;29.00;73.80;;;;;;4160645;28;20035;-69
2022/11/02 09:35:01;;;;;;;;;;;29.00;73.90;;;;;;4158496;28;20473;-69
2022/11/02 09:37:04;;;;;;;;;;;28.90;73.70;;;;;;4160741;28;19933;-70
2022/11/02 09:39:09;;;;;;;;;;;28.90;72.90;;;;;;4160083;28;20402;-68
2022/11/02 09:41:15;;;;;;;;;;;29.00;73.90;;;;;;4161052;28;20020;-69
2022/11/02 09:43:18;;;;;;;;;;;29.20;74.00;;;;;;4160849;28;19925;-70
2022/11/02 09:45:22;;;;;;;;;;;29.30;73.40;;;;;;4160167;28;19925;-69
2022/11/02 09:47:28;;;;;;;;;;;29.30;73.40;;;;;;4160616;28;20015;-69
2022/11/02 09:49:51;;;;;;;;;;;29.30;73.60;;;;;;4160467;28;19925;-70
2022/11/02 09:51:55;;;;;;;;;;;29.20;74.60;;;;;;4160385;28;20352;-70
2022/11/02 09:54:07;;;;;;;;;;;29.10;74.30;;;;;;4159713;28;19933;-69
2022/11/02 09:56:18;;;;;;;;;;;29.10;74.50;;;;;;4159360;28;19929;-70
2022/11/02 09:58:25;;;;;;;;;;;29.10;75.10;;;;;;4158848;28;19964;-70
2022/11/02 10:00:29;;;;;;;;;;;29.00;74.20;;;;;;4159229;28;19929;-70
2022/11/02 10:02:45;;;;;;;;;;;29.00;74.60;;;;;;4160086;28;20269;-72
2022/11/02 10:05:01;;;;;;;;;;;29.00;74.50;;;;;;4163450;28;20391;-69
2022/11/02 10:07:07;;;;;;;;;;;28.90;74.80;;;;;;4159854;28;20008;-70
2022/11/02 10:09:24;;;;;;;;;;;28.90;74.70;;;;;;4156751;28;19975;-70
2022/11/02 10:11:39;;;;;;;;;;;28.90;74.80;;;;;;4160212;28;20797;-69
2022/11/02 10:13:45;;;;;;;;;;;28.80;74.50;;;;;;4158665;28;19929;-70
2022/11/02 10:15:52;;;;;;;;;;;28.80;75.00;;;;;;4159747;28;19929;-69
2022/11/02 10:17:57;;;;;;;;;;;28.70;76.30;;;;;;4159572;28;19939;-69
2022/11/02 10:20:03;;;;;;;;;;;28.70;77.20;;;;;;4159726;28;19929;-69
2022/11/02 10:22:09;;;;;;;;;;;28.60;76.90;;;;;;4160081;28;20296;-69
2022/11/02 10:24:24;;;;;;;;;;;28.60;77.20;;;;;;4160022;28;19933;-69
2022/11/02 10:26:34;;;;;;;;;;;28.50;77.60;;;;;;4156186;28;19925;-69
2022/11/02 10:28:38;;;;;;;;;;;28.30;77.30;;;;;;4158445;28;19929;-71
2022/11/02 10:30:43;;;;;;;;;;;28.20;78.00;;;;;;4159703;28;19929;-70
2022/11/02 10:32:49;;;;;;;;;;;28.10;79.10;;;;;;4158589;28;19929;-70
2022/11/02 10:34:52;;;;;;;;;;;28.00;79.80;;;;;;4160561;28;19933;-69
2022/11/02 10:37:15;;;;;;;;;;;27.90;80.60;;;;;;4161898;28;20023;-69
2022/11/02 10:39:24;;;;;;;;;;;27.90;81.30;;;;;;4160299;28;19947;-70
2022/11/02 10:41:38;;;;;;;;;;;27.80;82.80;;;;;;4158934;28;20007;-71
2022/11/02 10:43:54;;;;;;;;;;;27.70;84.50;;;;;;4159634;28;19925;-71
2022/11/02 10:46:10;;;;;;;;;;;27.60;85.10;;;;;;4159203;28;19933;-69
2022/11/02 10:48:34;;;;;;;;;;;27.50;85.50;;;;;;4159447;28;19960;-70
2022/11/02 10:50:44;;;;;;;;;;;27.40;86.50;;;;;;4160035;28;19975;-71
2022/11/02 10:52:47;;;;;;;;;;;27.30;87.00;;;;;;4169960;28;19983;-70
2022/11/02 10:54:53;;;;;;;;;;;27.30;87.30;;;;;;4162257;28;19936;-71
2022/11/02 10:56:57;;;;;;;;;;;27.20;87.40;;;;;;4161566;28;19929;-69
2022/11/02 10:59:03;;;;;;;;;;;27.10;87.30;;;;;;4168069;28;20350;-71
2022/11/02 11:01:07;;;;;;;;;;;27.10;87.50;;;;;;4161338;28;19929;-71
2022/11/02 11:03:12;;;;;;;;;;;27.00;88.20;;;;;;4160675;28;20349;-71
2022/11/02 11:05:18;;;;;;;;;;;27.00;88.50;;;;;;4162098;28;19925;-71
2022/11/02 11:07:24;;;;;;;;;;;26.90;88.80;;;;;;4160293;28;20376;-70
2022/11/02 11:09:29;;;;;;;;;;;26.90;89.10;;;;;;4159692;28;19980;-70
2022/11/02 11:11:35;;;;;;;;;;;26.90;89.40;;;;;;4160798;28;20325;-69
2022/11/02 11:13:39;;;;;;;;;;;26.90;89.50;;;;;;4160789;28;19929;-70
2022/11/02 11:16:05;;;;;;;;;;;26.80;89.40;;;;;;4160953;28;19927;-70
2022/11/02 11:18:10;;;;;;;;;;;26.80;89.50;;;;;;4159941;28;20813;-70
2022/11/02 11:20:35;;;;;;;;;;;26.80;89.70;;;;;;4160275;28;19972;-69
2022/11/02 11:22:40;;;;;;;;;;;26.70;89.80;;;;;;4160956;28;19974;-69
2022/11/02 11:24:44;;;;;;;;;;;26.70;90.20;;;;;;4163959;28;20306;-69
2022/11/02 11:27:00;;;;;;;;;;;26.60;90.20;;;;;;4159836;28;19929;-70
2022/11/02 11:29:08;;;;;;;;;;;26.60;90.40;;;;;;4161822;28;19929;-70
2022/11/02 11:31:13;;;;;;;;;;;26.50;90.50;;;;;;4161721;28;19932;-71
2022/11/02 11:33:18;;;;;;;;;;;26.50;90.70;;;;;;4165030;28;19929;-70
2022/11/02 11:35:22;;;;;;;;;;;26.50;90.70;;;;;;4160863;28;19926;-70
2022/11/02 11:37:30;;;;;;;;;;;26.40;90.90;;;;;;4163445;28;19925;-71
2022/11/02 11:39:34;;;;;;;;;;;26.40;91.00;;;;;;4164603;28;19929;-71
2022/11/02 11:41:38;;;;;;;;;;;26.40;91.10;;;;;;4163605;28;19955;-71
2022/11/02 11:43:44;;;;;;;;;;;26.40;91.20;;;;;;4161169;28;20023;-71
2022/11/02 11:46:00;;;;;;;;;;;26.30;91.30;;;;;;4163518;28;19964;-70
2022/11/02 11:48:21;;;;;;;;;;;26.30;91.40;;;;;;4144345;28;19926;-71
2022/11/02 11:50:25;;;;;;;;;;;26.20;91.60;;;;;;4178077;28;20352;-69
2022/11/02 11:52:33;;;;;;;;;;;26.20;91.80;;;;;;4163954;28;19936;-70
2022/11/02 11:54:37;;;;;;;;;;;26.20;91.70;;;;;;4172319;28;19929;-70
2022/11/02 11:56:44;;;;;;;;;;;26.10;91.90;;;;;;4162642;28;19929;-71
2022/11/02 11:58:49;;;;;;;;;;;26.10;92.00;;;;;;4172529;28;20016;-69
2022/11/02 12:01:04;;;;;;;;;;;26.00;92.00;;;;;;4178602;28;20431;-70
2022/11/02 12:03:15;;;;;;;;;;;25.70;92.50;;;;;;4163091;28;19975;-69
2022/11/02 12:05:19;;;;;;;;;;;25.80;92.60;;;;;;4156163;28;19983;-70
2022/11/02 12:07:35;;;;;;;;;;;25.90;92.50;;;;;;4163885;28;20311;-69
2022/11/02 12:09:51;;;;;;;;;;;25.90;92.70;;;;;;4163970;28;20051;-70
2022/11/02 12:12:07;;;;;;;;;;;26.00;92.90;;;;;;4162351;28;19972;-70
2022/11/02 12:14:11;;;;;;;;;;;25.90;93.30;;;;;;4179607;28;19925;-70
2022/11/02 12:16:19;;;;;;;;;;;25.90;93.60;;;;;;4164150;28;19925;-69
2022/11/02 12:18:35;;;;;;;;;;;25.90;93.70;;;;;;4177961;28;19937;-69
2022/11/02 12:20:44;;;;;;;;;;;25.90;93.90;;;;;;4180500;28;19951;-70
2022/11/02 12:23:00;;;;;;;;;;;25.90;94.10;;;;;;4179129;28;19978;-71
2022/11/02 12:25:14;;;;;;;;;;;25.80;94.30;;;;;;4171584;28;19929;-70
2022/11/02 12:27:37;;;;;;;;;;;25.80;94.30;;;;;;4202852;28;19928;-70
2022/11/02 12:29:52;;;;;;;;;;;25.70;94.40;;;;;;4171431;28;19925;-71
2022/11/02 12:31:56;;;;;;;;;;;25.70;94.40;;;;;;4164666;28;19929;-70
2022/11/02 12:34:15;;;;;;;;;;;25.70;94.60;;;;;;4171275;28;20675;-70